createdAt,value
2023-01-17T00:02:19.524Z,4.30
2023-01-17T00:05:05.264Z,4.30
2023-01-17T00:07:50.895Z,4.30
2023-01-17T00:10:22.329Z,4.30
2023-01-17T00:12:51.881Z,4.30
2023-01-17T00:15:20.937Z,4.40
2023-01-17T00:17:49.151Z,4.40
2023-01-17T00:20:36.140Z,4.30
2023-01-17T00:23:24.990Z,4.30
2023-01-17T00:26:06.650Z,4.30
2023-01-17T00:28:35.623Z,4.30
2023-01-17T00:31:03.627Z,4.30
2023-01-17T00:33:30.692Z,4.30
2023-01-17T00:35:59.179Z,4.30
2023-01-17T00:38:27.313Z,4.20
2023-01-17T00:41:01.384Z,4.20
2023-01-17T00:43:48.777Z,4.20
2023-01-17T00:46:34.633Z,4.20
2023-01-17T00:49:20.085Z,4.20
2023-01-17T00:52:05.555Z,4.30
2023-01-17T00:54:50.993Z,4.30
2023-01-17T00:57:38.046Z,4.30
2023-01-17T01:00:25.152Z,4.30
2023-01-17T01:03:10.915Z,4.30
2023-01-17T01:05:56.427Z,4.30
2023-01-17T01:08:43.366Z,4.30
2023-01-17T01:11:30.438Z,4.30
2023-01-17T01:14:18.750Z,4.20
2023-01-17T01:17:04.595Z,4.20
2023-01-17T01:19:50.200Z,4.10
2023-01-17T01:22:35.420Z,4.10
2023-01-17T01:25:21.446Z,4.10
2023-01-17T01:28:07.139Z,4.00
2023-01-17T01:30:54.085Z,4.00
2023-01-17T01:33:20.921Z,3.90
2023-01-17T01:35:50.309Z,4.00
2023-01-17T01:38:18.755Z,3.90
2023-01-17T01:40:49.157Z,3.90
2023-01-17T01:43:19.587Z,3.80
2023-01-17T01:45:52.631Z,3.80
2023-01-17T01:48:34.227Z,3.70
2023-01-17T01:51:04.985Z,3.70
2023-01-17T01:53:34.501Z,3.60
2023-01-17T01:56:04.429Z,3.60
2023-01-17T01:58:36.859Z,3.60
2023-01-17T02:01:09.245Z,3.60
2023-01-17T02:03:40.729Z,3.60
2023-01-17T02:06:21.610Z,3.60
2023-01-17T02:08:49.980Z,3.60
2023-01-17T02:11:17.971Z,3.50
2023-01-17T02:13:45.771Z,3.50
2023-01-17T02:16:28.343Z,3.50
2023-01-17T02:19:02.902Z,3.50
2023-01-17T02:21:35.651Z,3.50
2023-01-17T02:24:27.308Z,3.60
2023-01-17T02:27:01.163Z,3.60
2023-01-17T02:30:20.771Z,3.60
2023-01-17T02:33:00.900Z,3.50
2023-01-17T02:35:52.705Z,3.50
2023-01-17T02:38:32.150Z,3.50
2023-01-17T02:41:05.215Z,3.60
2023-01-17T02:43:34.114Z,3.60
2023-01-17T02:46:02.125Z,3.60
2023-01-17T02:48:34.202Z,3.50
2023-01-17T02:51:25.358Z,3.60
2023-01-17T02:54:09.741Z,3.60
2023-01-17T02:56:49.913Z,3.50
2023-01-17T02:59:31.514Z,3.60
2023-01-17T03:02:10.144Z,3.60
2023-01-17T03:04:45.544Z,3.60
2023-01-17T03:07:17.489Z,3.60
2023-01-17T03:09:48.016Z,3.80
2023-01-17T03:12:16.242Z,3.80
2023-01-17T03:14:44.025Z,3.80
2023-01-17T03:17:11.982Z,3.70
2023-01-17T03:19:41.285Z,3.70
2023-01-17T03:22:09.067Z,3.70
2023-01-17T03:24:36.869Z,3.70
2023-01-17T03:27:04.806Z,3.70
2023-01-17T03:29:32.591Z,3.80
2023-01-17T03:32:00.577Z,3.80
2023-01-17T03:34:28.343Z,3.70
2023-01-17T03:36:57.493Z,3.80
2023-01-17T03:39:25.342Z,3.80
2023-01-17T03:41:53.137Z,3.90
2023-01-17T03:44:20.911Z,4.00
2023-01-17T03:46:48.699Z,4.10
2023-01-17T03:49:16.667Z,4.00
2023-01-17T03:51:44.527Z,3.70
2023-01-17T03:54:13.673Z,3.60
2023-01-17T03:56:41.417Z,3.50
2023-01-17T03:59:11.510Z,3.30
2023-01-17T04:01:40.857Z,3.60
2023-01-17T04:04:08.747Z,3.90
2023-01-17T04:06:36.515Z,3.90
2023-01-17T04:09:04.487Z,4.00
2023-01-17T04:11:33.614Z,4.00
2023-01-17T04:14:01.400Z,3.90
2023-01-17T04:16:30.749Z,3.70
2023-01-17T04:18:58.719Z,3.80
2023-01-17T04:21:26.480Z,3.80
2023-01-17T04:23:54.658Z,4.00
2023-01-17T04:26:22.439Z,4.20
2023-01-17T04:28:51.989Z,4.40
2023-01-17T04:31:19.844Z,4.40
2023-01-17T04:33:47.651Z,4.30
2023-01-17T04:36:15.437Z,4.20
2023-01-17T04:38:43.230Z,4.30
2023-01-17T04:41:11.204Z,4.40
2023-01-17T04:43:39.043Z,4.20
2023-01-17T04:46:10.071Z,3.90
2023-01-17T04:48:38.217Z,3.70
2023-01-17T04:51:06.689Z,4.00
2023-01-17T04:53:34.523Z,4.10
2023-01-17T04:56:02.760Z,4.20
2023-01-17T04:58:31.060Z,4.30
2023-01-17T05:01:02.856Z,4.00
2023-01-17T05:03:32.596Z,3.70
2023-01-17T05:06:00.759Z,3.40
2023-01-17T05:08:28.850Z,3.30
2023-01-17T05:10:56.928Z,3.10
2023-01-17T05:13:24.769Z,3.10
2023-01-17T05:15:52.748Z,3.10
2023-01-17T05:18:20.575Z,3.10
2023-01-17T05:20:49.744Z,3.30
2023-01-17T05:23:17.568Z,3.50
2023-01-17T05:25:45.421Z,3.80
2023-01-17T05:28:14.211Z,4.10
2023-01-17T05:30:42.339Z,4.20
2023-01-17T05:33:11.043Z,3.80
2023-01-17T05:35:39.341Z,3.50
2023-01-17T05:38:08.616Z,3.10
2023-01-17T05:40:36.526Z,2.90
2023-01-17T05:43:04.491Z,2.80
2023-01-17T05:45:33.669Z,2.60
2023-01-17T05:48:01.800Z,2.50
2023-01-17T05:50:33.044Z,2.60
2023-01-17T05:53:03.078Z,2.50
2023-01-17T05:55:32.755Z,2.50
2023-01-17T05:58:00.609Z,2.40
2023-01-17T06:00:28.761Z,2.40
2023-01-17T06:02:57.473Z,2.40
2023-01-17T06:05:26.528Z,2.30
2023-01-17T06:07:54.837Z,2.20
2023-01-17T06:10:23.141Z,2.10
2023-01-17T06:13:00.811Z,2.10
2023-01-17T06:15:28.608Z,2.10
2023-01-17T06:17:56.431Z,2.00
2023-01-17T06:20:24.229Z,2.00
2023-01-17T06:22:52.041Z,2.00
2023-01-17T06:25:19.863Z,2.00
2023-01-17T06:27:47.680Z,2.00
2023-01-17T06:30:17.386Z,1.90
2023-01-17T06:32:45.206Z,2.00
2023-01-17T06:35:13.008Z,1.90
2023-01-17T06:37:40.800Z,1.90
2023-01-17T06:40:10.408Z,1.90
2023-01-17T06:42:38.201Z,1.90
2023-01-17T06:45:06.858Z,2.00
2023-01-17T06:47:38.946Z,2.00
2023-01-17T06:50:07.916Z,2.10
2023-01-17T06:52:35.743Z,2.20
2023-01-17T06:55:03.588Z,2.20
2023-01-17T06:57:31.359Z,2.10
2023-01-17T06:59:59.150Z,2.20
2023-01-17T07:02:27.070Z,2.20
2023-01-17T07:04:56.210Z,2.30
2023-01-17T07:07:24.819Z,2.30
2023-01-17T07:09:52.777Z,2.30
2023-01-17T07:12:20.558Z,2.30
2023-01-17T07:14:48.331Z,2.30
2023-01-17T07:17:16.141Z,2.30
2023-01-17T07:19:44.890Z,2.30
2023-01-17T07:22:14.012Z,2.20
2023-01-17T07:24:41.851Z,2.30
2023-01-17T07:27:09.639Z,2.20
2023-01-17T07:29:37.418Z,2.20
2023-01-17T07:32:05.437Z,2.20
2023-01-17T07:34:33.275Z,2.20
2023-01-17T07:37:01.859Z,2.20
2023-01-17T07:39:31.114Z,2.20
2023-01-17T07:41:58.895Z,2.20
2023-01-17T07:44:26.719Z,2.20
2023-01-17T07:46:55.918Z,2.20
2023-01-17T07:49:23.796Z,2.30
2023-01-17T07:51:51.568Z,2.50
2023-01-17T07:54:19.388Z,2.80
2023-01-17T07:56:48.966Z,3.20
2023-01-17T07:59:20.847Z,3.40
2023-01-17T08:01:48.776Z,3.60
2023-01-17T08:04:16.768Z,3.70
2023-01-17T08:06:47.445Z,3.70
2023-01-17T08:09:15.362Z,3.80
2023-01-17T08:11:43.141Z,4.00
2023-01-17T08:14:12.283Z,4.30
2023-01-17T08:16:40.321Z,4.70
2023-01-17T08:19:08.198Z,4.90
2023-01-17T08:21:35.992Z,5.20
2023-01-17T08:24:03.892Z,5.30
2023-01-17T08:26:31.704Z,5.50
2023-01-17T08:29:01.229Z,5.70
2023-01-17T08:31:33.438Z,5.90
2023-01-17T08:34:01.620Z,6.10
2023-01-17T08:36:31.135Z,6.20
2023-01-17T08:38:59.716Z,6.50
2023-01-17T08:41:28.403Z,6.80
2023-01-17T08:43:56.244Z,7.10
2023-01-17T08:46:24.444Z,7.30
2023-01-17T08:48:56.449Z,7.40
2023-01-17T08:51:26.286Z,7.00
2023-01-17T08:53:54.577Z,6.90
2023-01-17T08:56:23.640Z,7.10
2023-01-17T08:58:51.424Z,7.20
2023-01-17T09:01:19.381Z,7.40
2023-01-17T09:04:22.894Z,7.40
2023-01-17T09:06:50.740Z,7.60
2023-01-17T09:09:19.014Z,8.00
2023-01-17T09:11:46.970Z,8.20
2023-01-17T09:14:15.483Z,8.50
2023-01-17T09:16:43.390Z,8.70
2023-01-17T09:19:12.914Z,8.80
2023-01-17T09:21:40.705Z,8.80
2023-01-17T09:24:08.706Z,8.90
2023-01-17T09:26:36.925Z,8.90
2023-01-17T09:29:04.907Z,8.90
2023-01-17T09:31:32.725Z,8.60
2023-01-17T09:34:00.702Z,8.10
2023-01-17T09:36:34.699Z,8.20
2023-01-17T09:39:04.129Z,8.40
2023-01-17T09:41:34.015Z,8.60
2023-01-17T09:44:07.431Z,9.00
2023-01-17T09:46:40.148Z,8.80
2023-01-17T09:49:10.449Z,8.90
2023-01-17T09:51:40.301Z,9.20
2023-01-17T09:54:20.314Z,9.10
2023-01-17T09:56:54.536Z,9.40
2023-01-17T09:59:35.632Z,9.70
2023-01-17T10:02:21.243Z,10.00
2023-01-17T10:05:16.305Z,10.00
2023-01-17T10:08:05.050Z,10.40
2023-01-17T10:10:41.757Z,10.40
2023-01-17T10:13:26.719Z,10.60
2023-01-17T10:16:10.312Z,10.30
2023-01-17T10:19:07.664Z,10.20
2023-01-17T10:21:52.533Z,9.50
2023-01-17T10:24:45.852Z,9.20
2023-01-17T10:27:20.661Z,9.10
2023-01-17T10:29:51.111Z,9.00
2023-01-17T10:32:22.429Z,9.10
2023-01-17T10:34:52.557Z,9.40
2023-01-17T10:37:25.332Z,9.70
2023-01-17T10:40:02.294Z,10.00
2023-01-17T10:42:38.912Z,9.80
2023-01-17T10:45:16.030Z,9.70
2023-01-17T10:47:49.187Z,10.00
2023-01-17T10:50:18.141Z,10.40
2023-01-17T10:52:55.532Z,10.60
2023-01-17T10:55:35.137Z,10.60
2023-01-17T10:58:04.680Z,9.70
2023-01-17T11:00:44.042Z,8.50
2023-01-17T11:03:13.305Z,7.50
2023-01-17T11:05:42.730Z,7.10
2023-01-17T11:08:13.304Z,7.40
2023-01-17T11:10:44.601Z,7.50
2023-01-17T11:13:26.217Z,7.50
2023-01-17T11:15:57.618Z,7.90
2023-01-17T11:18:28.445Z,8.40
2023-01-17T11:21:11.251Z,9.00
2023-01-17T11:23:41.649Z,9.20
2023-01-17T11:26:13.334Z,9.50
2023-01-17T11:28:42.369Z,9.60
2023-01-17T11:31:26.710Z,10.00
2023-01-17T11:34:14.177Z,10.60
2023-01-17T11:36:42.417Z,11.20
2023-01-17T11:39:27.606Z,11.50
2023-01-17T11:41:56.940Z,11.70
2023-01-17T11:44:26.933Z,11.50
2023-01-17T11:47:15.095Z,11.10
2023-01-17T11:49:44.530Z,10.90
2023-01-17T11:52:22.211Z,10.60
2023-01-17T11:54:51.282Z,10.00
2023-01-17T11:57:23.729Z,10.30
2023-01-17T11:59:55.322Z,10.80
2023-01-17T12:02:38.727Z,10.90
2023-01-17T12:05:24.211Z,10.90
2023-01-17T12:08:01.572Z,10.80
2023-01-17T12:10:37.053Z,10.50
2023-01-17T12:13:32.075Z,10.80
2023-01-17T12:16:29.827Z,11.00
2023-01-17T12:19:07.028Z,10.80
2023-01-17T12:21:46.220Z,11.10
2023-01-17T12:24:45.133Z,11.10
2023-01-17T12:27:19.305Z,11.20
2023-01-17T12:30:04.125Z,11.30
2023-01-17T12:32:51.048Z,11.10
2023-01-17T12:35:21.970Z,10.80
2023-01-17T12:38:05.263Z,9.90
2023-01-17T12:40:37.984Z,9.20
2023-01-17T12:43:14.829Z,8.90
2023-01-17T12:45:46.156Z,8.50
2023-01-17T12:48:17.351Z,7.70
2023-01-17T12:50:51.701Z,7.20
2023-01-17T12:53:28.506Z,6.70
2023-01-17T12:56:01.889Z,6.50
2023-01-17T12:58:36.932Z,6.50
2023-01-17T13:01:15.397Z,6.40
2023-01-17T13:03:55.517Z,6.60
2023-01-17T13:06:32.905Z,6.60
2023-01-17T13:09:03.242Z,6.70
2023-01-17T13:11:39.065Z,6.80
2023-01-17T13:14:10.651Z,6.80
2023-01-17T13:16:43.852Z,6.60
2023-01-17T13:19:18.974Z,6.50
2023-01-17T13:21:48.949Z,6.50
2023-01-17T13:24:26.625Z,6.60
2023-01-17T13:27:24.328Z,6.50
2023-01-17T13:30:04.700Z,6.30
2023-01-17T13:32:53.479Z,6.40
2023-01-17T13:35:27.048Z,6.40
2023-01-17T13:38:25.936Z,6.30
2023-01-17T13:40:56.172Z,6.30
2023-01-17T13:43:26.676Z,6.30
2023-01-17T13:45:57.374Z,6.20
2023-01-17T13:48:34.574Z,6.30
2023-01-17T13:51:03.698Z,6.20
2023-01-17T13:53:52.563Z,6.20
2023-01-17T13:56:32.829Z,6.00
2023-01-17T13:59:29.062Z,6.00
2023-01-17T14:01:57.214Z,6.00
2023-01-17T14:04:42.024Z,6.00
2023-01-17T14:07:20.867Z,5.90
2023-01-17T14:09:50.967Z,5.90
2023-01-17T14:12:33.049Z,6.00
2023-01-17T14:15:05.618Z,6.00
2023-01-17T14:17:55.577Z,6.00
2023-01-17T14:20:46.534Z,5.90
2023-01-17T14:23:31.796Z,5.90
2023-01-17T14:26:12.875Z,6.00
2023-01-17T14:28:40.760Z,5.90
2023-01-17T14:31:11.809Z,5.90
2023-01-17T14:33:41.065Z,5.90
2023-01-17T14:36:21.972Z,6.00
2023-01-17T14:38:49.792Z,5.90
2023-01-17T14:41:22.187Z,5.80
2023-01-17T14:43:51.224Z,5.70
2023-01-17T14:46:24.872Z,5.60
2023-01-17T14:48:59.808Z,5.70
2023-01-17T14:51:29.609Z,5.70
2023-01-17T14:53:58.696Z,5.70
2023-01-17T14:56:28.139Z,5.70
2023-01-17T14:59:06.946Z,5.60
2023-01-17T15:01:36.202Z,5.60
2023-01-17T15:04:04.211Z,5.50
2023-01-17T15:06:38.387Z,5.40
2023-01-17T15:09:12.965Z,5.50
2023-01-17T15:11:41.835Z,5.50
2023-01-17T15:14:15.739Z,5.50
2023-01-17T15:16:44.008Z,5.40
2023-01-17T15:19:13.727Z,5.40
2023-01-17T15:21:44.904Z,5.30
2023-01-17T15:24:19.830Z,5.30
2023-01-17T15:26:48.232Z,5.20
2023-01-17T15:29:23.447Z,5.20
2023-01-17T15:31:53.986Z,5.10
2023-01-17T15:34:27.775Z,4.90
2023-01-17T15:36:59.679Z,4.80
2023-01-17T15:39:30.721Z,4.80
2023-01-17T15:42:00.421Z,4.80
2023-01-17T15:44:49.735Z,4.70
2023-01-17T15:47:30.194Z,4.70
2023-01-17T15:49:59.539Z,4.70
2023-01-17T15:52:29.379Z,4.70
2023-01-17T15:55:00.157Z,4.60
2023-01-17T15:57:30.456Z,4.60
2023-01-17T16:00:01.575Z,4.60
2023-01-17T16:02:42.795Z,4.50
2023-01-17T16:05:33.893Z,4.40
2023-01-17T16:08:33.783Z,4.40
2023-01-17T16:11:03.467Z,4.30
2023-01-17T16:13:33.202Z,4.20
2023-01-17T16:16:16.127Z,4.10
2023-01-17T16:18:44.590Z,4.10
2023-01-17T16:21:21.764Z,4.00
2023-01-17T16:23:51.405Z,3.90
2023-01-17T16:26:19.804Z,3.80
2023-01-17T16:28:48.101Z,3.70
2023-01-17T16:31:16.700Z,3.60
2023-01-17T16:33:45.921Z,3.50
2023-01-17T16:36:16.247Z,3.50
2023-01-17T16:38:45.352Z,3.50
2023-01-17T16:41:14.483Z,3.50
2023-01-17T16:43:42.336Z,3.40
2023-01-17T16:46:12.230Z,3.40
2023-01-17T16:48:40.082Z,3.30
2023-01-17T16:51:08.895Z,3.30
2023-01-17T16:53:37.302Z,3.20
2023-01-17T16:56:11.744Z,3.20
2023-01-17T16:58:41.800Z,3.10
2023-01-17T17:01:11.056Z,3.00
2023-01-17T17:03:38.887Z,3.00
2023-01-17T17:06:07.117Z,2.90
2023-01-17T17:08:35.362Z,2.90
2023-01-17T17:11:14.881Z,2.80
2023-01-17T17:13:45.954Z,2.80
2023-01-17T17:16:18.955Z,2.70
2023-01-17T17:18:48.636Z,2.60
2023-01-17T17:21:16.371Z,2.60
2023-01-17T17:23:44.191Z,2.50
2023-01-17T17:26:11.957Z,2.50
2023-01-17T17:28:39.679Z,2.50
2023-01-17T17:31:11.292Z,2.50
2023-01-17T17:33:39.171Z,2.40
2023-01-17T17:36:10.008Z,2.50
2023-01-17T17:38:50.472Z,2.50
2023-01-17T17:41:20.294Z,2.50
2023-01-17T17:43:48.077Z,2.50
2023-01-17T17:46:17.905Z,2.50
2023-01-17T17:48:45.745Z,2.50
2023-01-17T17:51:24.305Z,2.40
2023-01-17T17:53:52.600Z,2.30
2023-01-17T17:56:20.617Z,2.30
2023-01-17T17:58:48.824Z,2.30
2023-01-17T18:01:18.202Z,2.30
2023-01-17T18:03:46.426Z,2.20
2023-01-17T18:06:17.346Z,2.30
2023-01-17T18:08:45.415Z,2.30
2023-01-17T18:11:18.308Z,2.30
2023-01-17T18:13:47.932Z,2.30
2023-01-17T18:16:19.502Z,2.30
2023-01-17T18:18:49.286Z,2.30
2023-01-17T18:21:23.412Z,2.20
2023-01-17T19:04:21.514Z,1.60
2023-01-17T19:06:49.822Z,1.60
2023-01-17T19:09:18.215Z,1.60
2023-01-17T19:11:47.362Z,1.60
2023-01-17T19:14:15.668Z,1.70
2023-01-17T19:16:44.146Z,1.70
2023-01-17T19:19:14.588Z,1.70
2023-01-17T19:21:44.306Z,1.80
2023-01-17T19:24:14.425Z,1.80
2023-01-17T19:26:42.796Z,1.90
2023-01-17T19:29:10.812Z,1.90
2023-01-17T19:31:42.469Z,1.90
2023-01-17T19:34:12.621Z,1.90
2023-01-17T19:36:40.487Z,1.90
2023-01-17T19:39:10.527Z,1.90
2023-01-17T19:41:42.634Z,2.00
2023-01-17T19:44:11.736Z,2.00
2023-01-17T19:46:39.864Z,1.90
2023-01-17T19:49:09.763Z,2.00
2023-01-17T19:51:39.288Z,2.00
2023-01-17T19:54:08.204Z,2.00
2023-01-17T19:56:37.683Z,2.00
2023-01-17T19:59:06.017Z,2.00
2023-01-17T20:01:35.411Z,2.00
2023-01-17T20:04:04.607Z,2.00
2023-01-17T20:06:35.370Z,2.00
2023-01-17T20:09:04.367Z,2.00
2023-01-17T20:11:32.559Z,2.00
2023-01-17T20:14:02.556Z,2.00
2023-01-17T20:16:32.917Z,2.00
2023-01-17T20:19:02.537Z,2.00
2023-01-17T20:21:31.830Z,2.00
2023-01-17T20:24:02.996Z,2.10
2023-01-17T20:26:35.411Z,2.00
2023-01-17T20:29:10.685Z,2.10
2023-01-17T20:31:39.745Z,2.10
2023-01-17T20:34:09.874Z,2.10
2023-01-17T20:36:38.206Z,2.10
2023-01-17T20:39:07.196Z,2.00
2023-01-17T20:41:36.951Z,2.10
2023-01-17T20:44:07.968Z,2.10
2023-01-17T20:46:40.903Z,2.10
2023-01-17T20:49:13.307Z,2.20
2023-01-17T20:51:41.435Z,2.10
2023-01-17T20:54:12.875Z,2.10
2023-01-17T20:56:41.208Z,2.10
2023-01-17T20:59:14.564Z,2.00
2023-01-17T21:01:44.285Z,2.10
2023-01-17T21:04:12.917Z,2.10
2023-01-17T21:06:42.352Z,2.10
2023-01-17T21:09:12.894Z,2.20
2023-01-17T21:11:40.773Z,2.10
2023-01-17T21:14:10.040Z,2.30
2023-01-17T21:16:37.864Z,2.30
2023-01-17T21:19:06.324Z,2.20
2023-01-17T21:21:34.120Z,2.20
2023-01-17T21:24:02.095Z,2.30
2023-01-17T21:26:30.144Z,2.30
2023-01-17T21:29:01.958Z,2.30
2023-01-17T21:31:34.696Z,2.30
2023-01-17T21:34:04.204Z,2.40
2023-01-17T21:36:33.516Z,2.30
2023-01-17T21:39:04.556Z,2.40
2023-01-17T21:41:34.766Z,2.40
2023-01-17T21:44:04.673Z,2.30
2023-01-17T21:46:38.112Z,2.30
2023-01-17T21:49:06.143Z,2.30
2023-01-17T21:51:53.153Z,2.30
2023-01-17T21:54:41.113Z,2.30
2023-01-17T21:57:27.184Z,2.30
2023-01-17T21:59:54.979Z,2.30
2023-01-17T22:02:24.699Z,2.30
2023-01-17T22:04:54.347Z,2.30
2023-01-17T22:07:22.181Z,2.20
2023-01-17T22:09:50.111Z,2.20
2023-01-17T22:12:17.937Z,2.20
2023-01-17T22:14:45.766Z,2.30
2023-01-17T22:17:13.588Z,2.20
2023-01-17T22:19:42.776Z,2.20
2023-01-17T22:22:10.566Z,2.20
2023-01-17T22:24:38.341Z,2.20
2023-01-17T22:27:09.963Z,2.20
2023-01-17T22:29:38.045Z,2.10
2023-01-17T22:32:06.142Z,2.10
2023-01-17T22:34:34.016Z,2.10
2023-01-17T22:37:04.613Z,2.10
2023-01-17T22:39:32.384Z,2.10
2023-01-17T22:42:00.150Z,2.00
2023-01-17T22:44:27.932Z,2.00
2023-01-17T22:46:55.729Z,2.10
2023-01-17T22:49:24.375Z,2.00
2023-01-17T22:51:52.451Z,2.00
2023-01-17T22:54:22.342Z,1.90
2023-01-17T22:56:50.161Z,2.00
2023-01-17T22:59:18.024Z,1.90
2023-01-17T23:01:45.832Z,2.30
2023-01-17T23:04:17.088Z,2.70
2023-01-17T23:06:44.956Z,2.90
2023-01-17T23:09:15.641Z,3.10
2023-01-17T23:11:47.274Z,3.20
2023-01-17T23:14:17.839Z,3.40
2023-01-17T23:17:04.671Z,3.60
2023-01-17T23:19:35.240Z,3.40
2023-01-17T23:22:16.579Z,3.40
2023-01-17T23:24:47.211Z,3.60
2023-01-17T23:27:35.960Z,3.50
2023-01-17T23:30:04.695Z,3.50
2023-01-17T23:32:34.350Z,3.70
2023-01-17T23:35:02.195Z,3.60
2023-01-17T23:37:48.206Z,3.70
2023-01-17T23:40:16.148Z,3.60
2023-01-17T23:43:03.083Z,3.50
2023-01-17T23:45:30.927Z,3.30
2023-01-17T23:47:58.702Z,3.30
2023-01-17T23:50:26.525Z,3.50
2023-01-17T23:52:54.432Z,3.50
2023-01-17T23:55:23.053Z,3.30
2023-01-17T23:57:52.748Z,3.30
